Timeline UpdatesTrip UpdatesNews PostsPvt PostsTravel TipsAdmin PostsConv PostsFollowed PostsChat RequestsBlog PostsPNR Posts

Disclaimer
Search
 
 
Tue Sep 2, 2014 17:15:24 ISTHomeTrainsΣChainsAtlasPNRForumGalleryNewsFAQTripsMembersLoginFeedback
No Recent News for this Train
Other Trains in the News **new
Latest...
Monsoon TT Updated W.e.f. 1st July to 30th Sept. 2014
Mon Jun 30, 2014 (04:30PM)
⇐ Return Journey: Train# 16334

16333/Veraval-Thiruvananthapuram Express

Time-Table HAS CHANGED.
Today (12:16AM)
Change Departure Station:
Change Arrival Station:
Post a Train Travel TipPost a Train Travel Tip **new
Post a Comment/Question/Picture/VideoPost a Comment/Question/Picture/Video
Pantry/Catering
✓ Pantry Car Avbl
✓ Catering Avbl
RSA - Rake Sharing
12697/12698/16333/16334 has RSA
Rake/Coach Composition
LOCO - SLR - GS - GS - B2 - B1 - A1 - S12 - S11 - S10 - PC - S9- S8 - S7 - S6 - S5 - S4 - S3 - S2 - S1 - GS - SLR ;; SLR-2, GEN-3, 2AC-1, 3AC-2,...
Read more...
S-12, PC-1 = 21 coaches
Loco
ERS WDM3A
News    PNR    Forum    Time-Table    Availability    Fare Chart    Map    Arr/Dep History    Trips    Gallery    ΣChains    X/O    Timeline    
Travel Time: 7h 50m    11 halts    Distance: 355 km    Avg Speed: 45 km/hr
Type: Mail/Express
Zone: SR/Southern
Departs @ 21:40
Platform# ???
     F 
Kuttippuram/KTU 
Arrives @ 05:30 +1 night
Platform# ???
      S
Trivandrum Central/TVC 

11 halts. 69 intermediate Stations between Kuttippuram and Trivandrum Central

Show ALL intermediate Stations  Show Old Time-Table

#CodeStation NameX/OArrivesAvgDepartsAvgHaltPFDay#KmSpeedElevZoneAddress
1VRLVeraval (5)  -03:00-11-2051.7588mWRVeraval, Gujarat
2KSDKeshod (2)X  03:48-03:50-2m11-2005.44846mWRKeshod, Gujarat
3JNDJunagadh Junction (5)X  04:34-04:36-2m--1-1970.06286mWRJunagadh, Gujarat
4NUDNavagadh (1)  05:07-05:09-2m11-1938.16590mWRJetpur, Gujarat
5GDLGondal (3)  05:37-05:39-2m--1-1907.949141mWRGondal, Gujarat
6BKNGBhakti Nagar (3)06:22-06:24-2m11-1872.741142mWRRajkot, Gujarat
7RJTRajkot Junction (5)X  06:33-06:35-2m11-1866.650128mWRRajkot, Gujarat
8WKRWankaner Junction (4)  07:25-07:27-2m--1-1824.87187mWRWankaner, Gujarat
9SUNRSurendranagar Junction (4)  08:30-08:32-2m--1-1750.55072mWRSurendra Nagar, Gujarat
10VGViramgam Junction (5)  09:50-09:52-2m21-1685.15429mWRViramgam, Gujarat
11ADIAhmedabad Junction (12)  11:05-11:25-20m51-1619.76251mWRAhmedabad, Gujarat
12ANNDAnand Junction (6)X  12:27-12:29-2m11-1555.65244mWRAnand, Gujarat
13BRCVadodara Junction (7)X  13:10-13:12-2m11-1519.87036mWRVadodara 390005, Gujarat
14AKVAnkleshwar Junction (4)X  14:20-14:22-2m21-1440.04219mWRAnkleshwar, Gujarat
15STSurat (4)X  15:33-15:35-2m21-1390.15719mWRSurat 395001, Gujarat
16NVSNavsari (3)  16:06-16:08-2m21-1360.46214mWRNavsari, Gujarat
17BLValsad (3)X  16:46-16:48-2m31-1321.36615mWRValsad, Gujarat
18VAPIVapi (3)X17:12-17:14-2m--1-1295.14227mWRVapi, Gujarat
19BORBoisar (3)X  18:55-18:57-2m31-1224.93517mWRBoisar Tel.no-02525-266626, Maharashtra
20BSRVasai Road (7)  20:25-20:30-5m71-1174.0457mWRVasai 401202, Maharashtra
21BIRDBhiwandi Road (4)X  21:06-21:08-2m11-1146.84426mCRBhiwandi, Maharashtra
22PNVLPanvel Junction (7)  22:00-22:05-5m71-1108.75210mCRPanvel, Maharashtra
23KHEDKhed (2)X  01:26-01:28-2m12-934.65027mKRKhed, Maharashtra
24RNRatnagiri (3)  03:35-04:00 03:40-25 5m12-829.657129mKRRatnagiri 415612, Maharashtra
25KUDLKudal (2)  06:08-06:10-2m12-689.95226mKRKudal - 416520, Maharashtra
26KRMIKarmali (2)X  07:28-07:30-2m12-622.2157mKRNorth Goa 403402, Goa
27MAOMadgaon Junction (3)  09:20-09:30-10m12-594.85711mKRMadgaon 403601, Goa
28KAWRKarwar (2)  10:35-10:37-2m12-533.45814mKRKarwar, Karnataka
29ANKLAnkola (1)X  11:06-11:08-2m12-505.45417mKRAnkola, Karnataka
30BYNRByndoor Mookambika Road (1)  12:56-12:58-2m12-408.47210mKRUdupi Dist. 576214, Karnataka
31KUDAKundapura (2)  13:26-13:28-2m12-374.95613mKRKundapura - 576211, Karnataka
32UDUdupi (2)X  14:02-14:04-2m12-342.85418mKRUdupi, Karnataka
33PDDPadubidri (1)  14:22-14:24-2m12-326.72920mKR, Karnataka
34MAJNMangalore Junction (3)  16:00-16:10-10m12-280.55124mSRMangalore 575001, Karnataka
35KGQKasaragod (3)  17:08-17:10-2m12-231.47718mSRTel: 04994 220800, Kerala
36KZEKanhangad (3)X17:28-17:30-2m--2-208.37615mSRKanhangad, Kerala
37PAYPayyanur (3)  17:53-17:55-2m--2-179.0770mSRKannur District, Kerala
38KPQKannapuram (2)XO  18:10-18:12-2m22-159.8269mSRKannur District, Kerala
39CANKannur Main (4)X  18:45-18:50-5m32-145.36914mSRKannur Tel: 0497 2705555, Kerala
40TLYThalassery (2)  19:08-19:10-2m--2-124.7669mSRKannur, Kerala
41BDJVadakara (2)X19:30-19:32-2m12-102.68211mSRCalicut / Station Ph No : 0496-2524254, Kerala
42QLDKoyilandy (3)  19:48-19:50-2m--2-80.64211mSRQuilandi, Kerala
43CLTKozhikode Main (4)  20:25-20:30-5m--2-56.34611mSRCalicut Tel: 0495 2701234, Kerala
44FKFerok (2)  20:43-20:45-2m--2-46.37019mSRFeroke, Kerala
45PGIParappangadi (2)  20:58-21:00-2m--2-31.15419mSRParappanangadi, Kerala
46TIRTirur (3)  21:18-21:20-2m--2-15.1509mSRTel: 0494 2422240, Kerala
47KTU»Kuttippuram (2)»  21:38-21:40-2m--20.08517mSRKuttippuram, Kerala
48PTBPattambi (2)XO  21:53-21:55-2m--218.51321mSRPattambi, Kerala
49SRRShoranur Junction (7)O  22:50-23:00-10m3230.06626mSRShoranur ph.no 0466-2222913, Kerala
50TCRThrissur (4)X  23:30-23:33-3m1263.0706mSRThrissur Tel: 0487 2423150, Kerala
51AWYAluva (3)X  00:20-00:22-2m13117.63612mSRPh: 0484-2624141, Kerala
52ERNErnakulam Town (North) (2)  00:50-00:55-5m23134.4559mSRTel: 0484 2395198, Kerala
53KTYMKottayam (3)  02:00-02:05-5m13194.46215mSRTel: 0481 2563535, Kerala
54TRVLTiruvalla (2)  02:30-02:32-2m23220.16027mSRPh: 0469-2601314, Kerala
55CNGRChengannur (3)  02:41-02:43-2m13229.1846mSRPh: 0479-2452340, Kerala
56MVLKMavelikara (3)02:52-02:54-2m--3241.74813mSRMavelikkara Ph: 0479-2302249, Kerala
57QLNKollam Junction (6)  03:55-04:00-5m13290.27816mSRKollam 0474-2746194, Kerala
58TVPThiruvananthapuram Pettah (2)  04:48-04:50-2m--3352.4418mSRTrivandrum Ph: 04712470181, Kerala
59TVC•Trivandrum Central (5)•  05:30----3354.8-12mSRThiruvananthapuram 695001, Kerala
Scroll to Top
Scroll to Bottom